Time;durP1;ratioP1;P1;durP2;ratioP2;P2;SDS_P1;SDS_P2;PMS_P1;PMS_P2;Temp;Humidity;BMP_temperature;BMP_pressure;BME280_temperature;BME280_humidity;BME280_pressure;Samples;Min_cycle;Max_cycle;Signal;HPM_P1;HPM_P2
2021/01/19 00:00:57;;;;;;;27.97;17.63;;;;;;;-1.50;48.27;100334.97;5038517;28;20064;-76
2021/01/19 00:03:23;;;;;;;27.13;17.33;;;;;;;-1.58;48.14;100324.19;5038857;28;20117;-76
2021/01/19 00:05:48;;;;;;;32.07;17.57;;;;;;;-1.70;48.21;100312.72;5037004;28;20033;-76
2021/01/19 00:08:14;;;;;;;27.67;16.50;;;;;;;-1.77;48.48;100307.03;5038275;28;20025;-76
2021/01/19 00:10:39;;;;;;;28.13;16.90;;;;;;;-1.60;48.43;100347.56;5037010;28;20399;-76
2021/01/19 00:13:04;;;;;;;30.73;17.03;;;;;;;-1.55;48.26;100361.13;5038079;28;20096;-76
2021/01/19 00:15:30;;;;;;;30.10;18.07;;;;;;;-1.65;48.49;100345.22;5038107;28;20038;-76
2021/01/19 00:17:57;;;;;;;31.33;18.33;;;;;;;-2.07;47.94;100268.09;5037836;28;20036;-76
2021/01/19 00:20:23;;;;;;;33.43;18.23;;;;;;;-2.06;48.20;100274.09;5020578;28;20355;-76
2021/01/19 00:22:49;;;;;;;28.80;17.97;;;;;;;-1.46;48.20;100363.25;5020411;28;20032;-76
2021/01/19 00:25:14;;;;;;;31.67;17.77;;;;;;;-1.41;48.48;100369.00;5037911;28;20064;-76
2021/01/19 00:27:40;;;;;;;30.67;18.00;;;;;;;-1.60;48.18;100335.47;5037642;28;20025;-76
2021/01/19 00:30:06;;;;;;;32.27;18.17;;;;;;;-1.61;48.04;100341.56;5020183;28;20026;-75
2021/01/19 00:32:31;;;;;;;32.97;18.43;;;;;;;-2.07;48.36;100264.69;5036140;28;20033;-76
2021/01/19 00:34:56;;;;;;;31.80;19.27;;;;;;;-1.61;48.22;100338.97;5036429;28;20032;-76
2021/01/19 00:37:22;;;;;;;25.03;16.73;;;;;;;-1.72;48.26;100327.50;5037434;28;20025;-76
2021/01/19 00:39:47;;;;;;;28.87;16.27;;;;;;;-1.45;48.56;100367.50;5037677;28;20037;-76
2021/01/19 00:42:15;;;;;;;27.67;17.73;;;;;;;-1.85;48.31;100308.38;5040279;28;20029;-76
2021/01/19 00:44:40;;;;;;;30.07;18.60;;;;;;;-1.82;48.49;100315.97;5037270;28;20108;-76
2021/01/19 00:47:05;;;;;;;27.63;17.33;;;;;;;-1.49;48.60;100371.16;5037321;28;20104;-76
2021/01/19 00:49:31;;;;;;;29.17;17.43;;;;;;;-1.59;48.68;100349.25;5037402;28;20025;-76
2021/01/19 00:51:56;;;;;;;28.57;16.80;;;;;;;-1.72;48.19;100340.47;5037146;28;20029;-76
2021/01/19 00:54:22;;;;;;;30.37;17.37;;;;;;;-1.50;48.11;100353.09;5037083;28;20040;-76
2021/01/19 00:56:47;;;;;;;28.17;16.70;;;;;;;-1.70;48.59;100316.16;5037020;28;20036;-76
2021/01/19 00:59:12;;;;;;;28.77;16.73;;;;;;;-1.44;48.12;100368.34;5037315;28;20033;-75
2021/01/19 01:01:47;;;;;;;26.20;16.03;;;;;;;-1.44;48.21;100365.75;5036813;28;20025;-76
2021/01/19 01:04:13;;;;;;;28.23;16.97;;;;;;;-1.85;47.83;100300.59;5037113;28;20063;-76
2021/01/19 01:06:38;;;;;;;29.03;16.67;;;;;;;-2.02;48.26;100284.22;5036903;28;20395;-76
2021/01/19 01:09:04;;;;;;;28.23;17.17;;;;;;;-1.45;47.88;100361.50;5036764;28;20030;-76
2021/01/19 01:11:36;;;;;;;29.33;17.80;;;;;;;-1.48;48.16;100348.69;5036613;28;20440;-76
2021/01/19 01:14:02;;;;;;;28.83;17.27;;;;;;;-1.46;48.23;100358.06;5035878;28;20036;-76
2021/01/19 01:16:27;;;;;;;31.27;18.10;;;;;;;-2.22;48.26;100224.91;5036650;28;20033;-76
2021/01/19 01:18:53;;;;;;;33.33;18.60;;;;;;;-1.47;48.49;100351.22;5036398;28;20030;-76
2021/01/19 01:21:18;;;;;;;29.33;17.83;;;;;;;-1.61;47.98;100325.19;5036579;28;20026;-76
2021/01/19 01:23:43;;;;;;;34.57;21.67;;;;;;;-1.52;48.35;100336.81;5036369;28;20056;-76
2021/01/19 01:26:09;;;;;;;31.57;19.03;;;;;;;-1.52;48.71;100342.00;5018923;28;20032;-76
2021/01/19 01:28:34;;;;;;;32.00;18.53;;;;;;;-1.56;48.34;100343.91;5036433;28;20044;-76
2021/01/19 01:30:59;;;;;;;34.33;19.10;;;;;;;-2.27;48.56;100214.78;5036481;28;20028;-75
2021/01/19 01:33:25;;;;;;;31.20;18.73;;;;;;;-1.54;48.41;100343.81;5035230;28;20439;-76
2021/01/19 01:35:50;;;;;;;34.33;18.97;;;;;;;-1.88;48.91;100290.41;5036161;28;20163;-76
2021/01/19 01:38:16;;;;;;;32.20;20.13;;;;;;;-1.61;48.82;100346.75;5036359;28;20076;-76
2021/01/19 01:40:41;;;;;;;33.93;19.20;;;;;;;-1.86;49.07;100304.09;5035991;28;20439;-75
2021/01/19 01:43:12;;;;;;;34.43;19.90;;;;;;;-1.67;49.56;100341.03;5034502;28;20030;-76
2021/01/19 01:45:38;;;;;;;30.95;20.17;;;;;;;-1.66;49.03;100342.72;5035899;28;20107;-76
2021/01/19 01:48:04;;;;;;;35.67;21.87;;;;;;;-1.60;49.42;100343.22;5035951;28;20432;-76
2021/01/19 01:50:30;;;;;;;35.50;20.73;;;;;;;-1.97;49.10;100283.97;5034890;28;20105;-76
2021/01/19 01:52:57;;;;;;;41.57;22.93;;;;;;;-1.79;49.26;100321.81;5035665;28;20037;-76
2021/01/19 01:55:23;;;;;;;41.60;23.10;;;;;;;-1.95;49.08;100303.69;5035955;28;20061;-76
2021/01/19 01:57:50;;;;;;;45.03;27.97;;;;;;;-1.73;49.57;100347.38;5037668;28;20095;-76
2021/01/19 02:00:16;;;;;;;41.63;26.63;;;;;;;-1.93;49.12;100321.72;5038190;28;20035;-76
2021/01/19 02:02:49;;;;;;;45.80;24.83;;;;;;;-1.76;49.93;100338.94;5035626;28;20025;-75
2021/01/19 02:05:15;;;;;;;47.83;26.53;;;;;;;-1.89;49.75;100322.38;5018081;28;20061;-76
2021/01/19 02:08:15;;;;;;;47.93;27.00;;;;;;;-1.83;49.57;100325.50;5035859;28;20052;-76
2021/01/19 02:11:15;;;;;;;44.37;25.13;;;;;;;-1.82;49.68;100334.94;5015854;28;20037;-75
2021/01/19 02:13:59;;;;;;;37.30;20.80;;;;;;;-2.12;49.68;100283.03;5022356;28;20037;-76
2021/01/19 02:16:30;;;;;;;34.50;20.97;;;;;;;-1.85;49.99;100327.31;5035526;28;20447;-76
2021/01/19 02:18:59;;;;;;;41.58;22.98;;;;;;;-1.87;49.58;100325.72;5035174;28;20030;-75
2021/01/19 02:21:49;;;;;;;43.27;22.87;;;;;;;-1.97;49.67;100308.09;5035159;28;20052;-76
2021/01/19 02:24:31;;;;;;;42.87;23.57;;;;;;;-2.34;49.30;100257.41;5035371;28;20363;-76
2021/01/19 02:27:08;;;;;;;45.85;25.45;;;;;;;-1.86;49.80;100330.81;5035190;28;20033;-76
2021/01/19 02:29:48;;;;;;;46.17;24.70;;;;;;;-1.88;49.71;100327.47;5035254;28;20033;-76
2021/01/19 02:32:35;;;;;;;42.27;24.60;;;;;;;-1.87;49.26;100323.97;5035078;28;20065;-76
2021/01/19 02:35:15;;;;;;;41.90;23.50;;;;;;;-1.89;50.00;100335.31;5035126;28;20398;-76
2021/01/19 02:37:57;;;;;;;44.13;24.17;;;;;;;-1.96;49.58;100335.66;5034932;28;20021;-76
2021/01/19 02:40:23;;;;;;;36.60;20.60;;;;;;;-2.13;49.77;100316.72;5035137;28;20037;-76
2021/01/19 02:43:13;;;;;;;46.90;26.17;;;;;;;-1.97;49.80;100341.75;5034880;28;20087;-76
2021/01/19 02:45:39;;;;;;;40.30;23.10;;;;;;;-2.07;50.14;100327.59;5034851;28;20025;-76
2021/01/19 02:48:05;;;;;;;39.53;22.17;;;;;;;-2.32;49.68;100293.53;5034973;28;20087;-75
2021/01/19 02:50:31;;;;;;;39.07;23.20;;;;;;;-2.05;49.83;100340.47;5035012;28;20033;-76
2021/01/19 02:52:59;;;;;;;35.90;21.27;;;;;;;-2.03;49.81;100333.44;5034979;28;20033;-75
2021/01/19 02:55:25;;;;;;;34.07;20.63;;;;;;;-2.09;49.63;100321.66;5034144;28;20036;-76
2021/01/19 02:58:28;;;;;;;35.80;21.30;;;;;;;-2.73;49.22;100216.31;5034615;28;20420;-75
2021/01/19 03:01:20;;;;;;;35.60;20.57;;;;;;;-2.00;49.75;100328.13;4974247;28;20169;-76
2021/01/19 03:03:48;;;;;;;36.07;21.50;;;;;;;-2.21;49.51;100301.59;5033855;28;20040;-76
2021/01/19 03:06:16;;;;;;;36.20;19.63;;;;;;;-2.06;49.66;100329.28;5034640;28;20034;-76
2021/01/19 03:08:43;;;;;;;33.83;18.43;;;;;;;-2.22;49.41;100301.69;5034531;28;20478;-76
2021/01/19 03:11:14;;;;;;;31.83;17.73;;;;;;;-2.90;49.61;100204.25;5033467;28;20029;-76
2021/01/19 03:13:41;;;;;;;28.70;16.30;;;;;;;-2.12;49.22;100323.56;5034765;28;20087;-76
2021/01/19 03:16:13;;;;;;;25.97;15.30;;;;;;;-2.06;49.49;100334.44;5037647;28;20033;-75
2021/01/19 03:18:40;;;;;;;23.95;15.15;;;;;;;-2.12;49.06;100334.75;5034547;28;20038;-76
2021/01/19 03:21:07;;;;;;;23.33;13.90;;;;;;;-2.27;49.24;100330.34;5017150;28;20032;-76
2021/01/19 03:23:34;;;;;;;22.80;13.00;;;;;;;-2.38;49.58;100323.13;5034719;28;20029;-75
2021/01/19 03:26:00;;;;;;;21.13;13.33;;;;;;;-2.81;49.54;100272.72;5034556;28;20017;-76
2021/01/19 03:28:26;;;;;;;22.80;12.57;;;;;;;-2.82;49.73;100244.38;5033411;28;20037;-76
2021/01/19 03:30:52;;;;;;;20.67;13.53;;;;;;;-2.41;49.31;100297.41;5033525;28;20095;-76
2021/01/19 03:33:17;;;;;;;23.97;14.30;;;;;;;-2.30;49.69;100320.97;5034730;28;20098;-76
2021/01/19 03:35:43;;;;;;;23.30;13.63;;;;;;;-2.31;49.25;100318.47;5035125;28;20419;-76
2021/01/19 03:38:08;;;;;;;24.50;14.90;;;;;;;-2.52;48.90;100281.59;5033470;28;20052;-75
2021/01/19 03:40:34;;;;;;;25.20;14.00;;;;;;;-2.27;49.24;100325.16;5034841;28;20458;-76
2021/01/19 03:43:01;;;;;;;26.33;15.33;;;;;;;-2.63;49.12;100251.13;5034595;28;20033;-76
2021/01/19 03:45:27;;;;;;;28.37;14.63;;;;;;;-2.71;49.32;100242.09;5034498;28;20025;-75
2021/01/19 03:47:52;;;;;;;24.50;14.63;;;;;;;-2.49;48.86;100259.94;5034603;28;20321;-75
2021/01/19 03:50:18;;;;;;;27.67;16.90;;;;;;;-2.39;49.01;100295.59;5033469;28;20099;-76
2021/01/19 03:52:44;;;;;;;27.87;16.50;;;;;;;-2.08;49.06;100328.53;5034794;28;20033;-76
2021/01/19 03:55:10;;;;;;;30.57;15.60;;;;;;;-2.13;48.87;100322.75;5034841;28;20025;-76
2021/01/19 03:57:35;;;;;;;24.13;14.43;;;;;;;-2.45;49.09;100275.22;5017709;28;20372;-76
2021/01/19 04:00:01;;;;;;;25.27;14.97;;;;;;;-2.44;48.88;100279.47;5034460;28;20116;-76
2021/01/19 04:02:26;;;;;;;24.50;15.33;;;;;;;-2.13;48.97;100327.91;5034969;28;20029;-75
2021/01/19 04:04:53;;;;;;;26.43;14.93;;;;;;;-2.27;48.55;100297.56;5035277;28;20427;-76
2021/01/19 04:07:19;;;;;;;41.23;19.43;;;;;;;-2.14;49.01;100331.41;5038370;28;20085;-76
2021/01/19 04:09:44;;;;;;;33.43;19.20;;;;;;;-2.43;49.02;100285.47;5039462;28;20436;-76
2021/01/19 04:12:10;;;;;;;31.60;19.33;;;;;;;-2.22;48.61;100315.47;5039519;28;20057;-77
2021/01/19 04:14:35;;;;;;;30.00;17.07;;;;;;;-2.33;48.60;100313.38;5038947;28;20037;-76
2021/01/19 04:17:01;;;;;;;31.83;17.57;;;;;;;-2.38;48.94;100304.19;5038786;28;20041;-76
2021/01/19 04:19:26;;;;;;;38.97;19.30;;;;;;;-2.07;48.82;100342.28;5039212;28;20041;-76
2021/01/19 04:21:51;;;;;;;34.70;19.67;;;;;;;-2.05;48.57;100343.88;5021324;28;20033;-76
2021/01/19 04:24:17;;;;;;;41.60;20.93;;;;;;;-2.10;48.75;100338.09;5038644;28;20104;-76
2021/01/19 04:26:42;;;;;;;37.60;21.07;;;;;;;-2.10;48.96;100340.69;5037915;28;20350;-76
2021/01/19 04:29:08;;;;;;;37.73;20.00;;;;;;;-2.23;48.69;100326.69;5039222;28;20033;-76
2021/01/19 04:31:33;;;;;;;37.90;21.53;;;;;;;-2.03;48.93;100360.16;5040563;28;20036;-76
2021/01/19 04:33:59;;;;;;;40.37;21.07;;;;;;;-2.24;48.73;100333.59;5041315;28;20487;-76
2021/01/19 04:36:24;;;;;;;45.90;24.00;;;;;;;-2.67;48.66;100262.53;5039184;28;20036;-76
2021/01/19 04:38:50;;;;;;;37.30;21.47;;;;;;;-2.25;48.71;100336.28;5039346;28;20031;-76
2021/01/19 04:41:15;;;;;;;33.13;17.90;;;;;;;-2.09;48.87;100368.25;5039240;28;20083;-76
2021/01/19 04:43:42;;;;;;;32.20;19.40;;;;;;;-2.34;48.74;100360.00;5038920;28;20053;-76
2021/01/19 04:46:09;;;;;;;48.03;23.10;;;;;;;-2.44;48.84;100322.59;5039066;28;20033;-76
2021/01/19 04:48:36;;;;;;;26.37;15.83;;;;;;;-2.35;48.60;100342.81;5037275;28;20424;-76
2021/01/19 04:51:04;;;;;;;23.70;15.60;;;;;;;-2.21;48.61;100374.03;5020561;28;20025;-76
2021/01/19 04:53:31;;;;;;;25.30;14.90;;;;;;;-2.14;48.38;100377.16;5038113;28;20033;-76
2021/01/19 04:56:03;;;;;;;24.50;14.33;;;;;;;-2.14;48.13;100366.81;5038107;28;20443;-76
2021/01/19 04:58:31;;;;;;;25.38;14.90;;;;;;;-2.46;48.25;100308.91;5021235;28;20033;-76
2021/01/19 05:01:05;;;;;;;25.07;14.83;;;;;;;-2.04;48.37;100386.94;5038405;28;20029;-76
2021/01/19 05:03:39;;;;;;;22.53;13.43;;;;;;;-2.08;48.34;100377.69;5037931;28;20041;-76
2021/01/19 05:06:27;;;;;;;21.53;13.40;;;;;;;-2.00;47.92;100395.41;5037417;28;20029;-76
2021/01/19 05:08:56;;;;;;;23.50;13.80;;;;;;;-2.88;47.94;100241.19;5037615;28;20029;-76
2021/01/19 05:11:24;;;;;;;22.03;13.47;;;;;;;-1.99;48.11;100392.72;5020633;28;20108;-76
2021/01/19 05:13:53;;;;;;;24.00;14.57;;;;;;;-1.89;48.17;100397.44;5020799;28;20022;-76
2021/01/19 05:16:21;;;;;;;24.03;14.63;;;;;;;-1.89;48.17;100405.19;5038818;28;20029;-76
2021/01/19 05:18:47;;;;;;;26.33;15.07;;;;;;;-2.07;48.26;100383.69;5036939;28;20033;-76
2021/01/19 05:21:13;;;;;;;28.37;17.20;;;;;;;-2.04;47.71;100388.72;5037145;28;20033;-76
2021/01/19 05:23:38;;;;;;;29.13;16.77;;;;;;;-2.35;47.57;100332.47;5038746;28;20029;-75
2021/01/19 05:26:06;;;;;;;34.00;17.53;;;;;;;-2.28;48.03;100345.03;5038256;28;20103;-76
2021/01/19 05:30:57;;;;;;;26.13;15.80;;;;;;;-2.16;47.93;100361.69;5045010;23;20104;-76
2021/01/19 05:33:22;;;;;;;30.73;16.97;;;;;;;-1.99;47.60;100384.97;5038517;28;20025;-76
2021/01/19 05:35:48;;;;;;;29.97;18.53;;;;;;;-1.94;47.50;100397.66;5039352;28;20029;-76
2021/01/19 05:38:13;;;;;;;27.47;15.37;;;;;;;-2.48;47.83;100306.41;5020614;28;20060;-76
2021/01/19 05:40:44;;;;;;;31.20;16.67;;;;;;;-1.86;47.46;100392.94;5038669;28;20392;-76
2021/01/19 05:43:13;;;;;;;26.33;16.37;;;;;;;-2.22;47.77;100348.25;5037783;28;20034;-77
2021/01/19 05:48:14;;;;;;;37.13;21.27;;;;;;;-1.86;47.82;100399.88;5037028;28;20053;-76
2021/01/19 05:50:40;;;;;;;36.60;19.10;;;;;;;-1.90;47.96;100411.28;5038723;28;20063;-76
2021/01/19 05:53:24;;;;;;;28.80;15.27;;;;;;;-2.01;47.76;100399.72;5056142;23;20049;-77
2021/01/19 05:56:01;;;;;;;30.97;18.27;;;;;;;-2.64;47.89;100282.22;5046618;28;20459;-77
2021/01/19 05:58:36;;;;;;;29.00;16.03;;;;;;;-1.82;48.04;100416.91;5022671;23;20052;-77
2021/01/19 06:01:02;;;;;;;35.80;17.47;;;;;;;-1.75;47.73;100419.09;5040767;23;20102;-77
2021/01/19 06:03:29;;;;;;;29.70;18.10;;;;;;;-2.23;47.56;100362.91;5052047;28;20028;-76
2021/01/19 06:05:54;;;;;;;27.77;16.53;;;;;;;-1.91;47.56;100402.69;5016737;28;20025;-77
2021/01/19 06:08:23;;;;;;;29.67;18.10;;;;;;;-1.89;47.31;100425.91;5016931;28;20029;-76
2021/01/19 06:10:49;;;;;;;26.90;16.63;;;;;;;-2.04;47.79;100404.22;4999516;28;20030;-77
2021/01/19 06:13:16;;;;;;;28.17;16.30;;;;;;;-2.07;47.45;100397.47;5017012;28;20073;-76
2021/01/19 06:15:42;;;;;;;29.10;17.17;;;;;;;-2.48;47.58;100346.94;5046893;28;20026;-77
2021/01/19 06:18:08;;;;;;;30.77;15.93;;;;;;;-2.01;48.00;100429.94;5037460;28;20455;-78
2021/01/19 06:20:42;;;;;;;26.07;16.07;;;;;;;-2.32;47.54;100392.63;5047768;23;20091;-77
2021/01/19 06:23:09;;;;;;;30.23;18.33;;;;;;;-2.11;48.18;100418.38;5036454;28;20383;-77
2021/01/19 06:25:35;;;;;;;33.50;19.37;;;;;;;-2.02;47.84;100441.22;5020380;28;20017;-77
2021/01/19 06:28:10;;;;;;;38.57;20.60;;;;;;;-2.66;47.61;100323.66;5037801;28;20032;-77
2021/01/19 06:30:36;;;;;;;36.47;19.30;;;;;;;-1.95;47.33;100440.81;5034102;28;20089;-78
2021/01/19 06:33:02;;;;;;;37.10;19.50;;;;;;;-2.19;47.62;100385.13;5014320;28;20036;-77
2021/01/19 06:35:29;;;;;;;39.80;22.17;;;;;;;-2.06;47.16;100395.72;5030795;28;20123;-78
2021/01/19 06:38:04;;;;;;;40.53;24.20;;;;;;;-1.73;47.42;100450.09;5031677;28;20438;-77
2021/01/19 06:40:34;;;;;;;39.80;23.37;;;;;;;-1.87;47.42;100447.38;5036647;28;20394;-76
2021/01/19 06:43:03;;;;;;;37.70;22.33;;;;;;;-2.02;47.92;100438.63;5040935;23;20041;-79
2021/01/19 06:45:33;;;;;;;43.00;22.03;;;;;;;-1.84;48.04;100460.16;5048674;28;20053;-78
2021/01/19 06:48:04;;;;;;;46.20;25.37;;;;;;;-1.83;48.09;100460.06;5043081;28;20207;-78
2021/01/19 06:50:34;;;;;;;39.37;22.70;;;;;;;-1.84;48.22;100463.59;5040301;28;20121;-77
2021/01/19 06:53:22;;;;;;;46.13;28.13;;;;;;;-1.97;48.40;100434.91;5023995;28;20033;-77
2021/01/19 06:55:59;;;;;;;46.50;26.13;;;;;;;-1.77;48.46;100477.06;5041033;28;20048;-77
2021/01/19 06:58:54;;;;;;;57.93;29.97;;;;;;;-1.74;47.96;100480.31;5040113;28;20026;-77
2021/01/19 07:01:24;;;;;;;38.63;22.43;;;;;;;-1.78;48.06;100465.88;5038255;28;20034;-77
2021/01/19 07:04:05;;;;;;;63.23;32.27;;;;;;;-1.78;48.52;100472.78;5039026;28;20025;-77
2021/01/19 07:07:18;;;;;;;83.33;40.93;;;;;;;-1.90;47.98;100458.72;5019069;28;20045;-77
2021/01/19 07:10:03;;;;;;;;;;;;;;;-1.95;48.39;100477.06;5035845;23;20061;-77
2021/01/19 07:12:55;;;;;;;67.47;35.43;;;;;;;-1.83;47.99;100478.19;5038949;28;19966;-77
2021/01/19 07:15:22;;;;;;;76.88;38.13;;;;;;;-1.78;47.85;100483.97;5020664;28;20116;-77
2021/01/19 07:18:03;;;;;;;61.33;33.97;;;;;;;-1.86;48.27;100473.19;5035295;28;20041;-77
2021/01/19 07:20:40;;;;;;;48.33;27.33;;;;;;;-2.46;48.49;100376.97;5023485;28;20392;-77
2021/01/19 07:23:28;;;;;;;47.43;25.80;;;;;;;-1.80;48.45;100479.78;5034352;28;20033;-78
2021/01/19 07:25:53;;;;;;;42.80;22.70;;;;;;;-1.79;47.93;100476.28;5030234;28;20321;-77
2021/01/19 07:28:19;;;;;;;40.70;24.27;;;;;;;-1.71;48.07;100485.34;5034292;28;20032;-77
2021/01/19 07:30:44;;;;;;;43.13;22.93;;;;;;;-2.12;47.55;100408.94;4999107;28;20092;-77
2021/01/19 07:33:10;;;;;;;47.13;28.97;;;;;;;-1.68;48.06;100490.38;5036936;23;20056;-76
2021/01/19 07:35:36;;;;;;;39.77;22.40;;;;;;;-1.70;47.78;100465.47;5036780;28;20028;-79
2021/01/19 07:38:01;;;;;;;34.13;20.90;;;;;;;-1.65;47.33;100468.66;5028213;28;20037;-77
2021/01/19 07:40:27;;;;;;;29.37;18.20;;;;;;;-1.59;47.53;100468.34;5000279;28;20022;-77
2021/01/19 07:42:53;;;;;;;27.07;16.30;;;;;;;-1.61;47.32;100465.00;5020660;28;20025;-77
2021/01/19 07:45:30;;;;;;;24.03;15.87;;;;;;;-1.52;46.70;100455.94;5023315;28;20033;-77
2021/01/19 07:48:07;;;;;;;25.47;15.37;;;;;;;-1.29;46.75;100486.69;5022956;28;20404;-77
2021/01/19 07:50:45;;;;;;;24.23;14.63;;;;;;;-1.33;46.00;100492.94;5004594;28;20329;-77
2021/01/19 07:53:12;;;;;;;25.17;14.40;;;;;;;-1.45;46.64;100463.34;5024151;28;20511;-78
2021/01/19 07:55:46;;;;;;;23.50;14.90;;;;;;;-1.37;45.93;100496.59;5025683;28;20073;-78
2021/01/19 07:58:20;;;;;;;27.17;15.03;;;;;;;-1.80;46.49;100423.69;5021188;28;20038;-78
2021/01/19 08:03:14;;;;;;;22.03;13.13;;;;;;;-1.29;46.27;100492.69;5041517;28;20054;-79
2021/01/19 08:05:39;;;;;;;22.87;14.03;;;;;;;-1.42;46.46;100470.94;5040628;28;20356;-77
2021/01/19 08:08:17;;;;;;;23.83;13.20;;;;;;;-1.17;45.57;100490.38;5041534;28;20427;-77
2021/01/19 08:10:57;;;;;;;25.30;14.30;;;;;;;-0.91;45.57;100512.34;5048524;28;20033;-77
2021/01/19 08:13:22;;;;;;;20.77;11.80;;;;;;;-1.30;45.70;100447.00;5040873;28;20036;-77
2021/01/19 08:16:05;;;;;;;27.73;14.63;;;;;;;-0.80;45.43;100510.84;5042328;28;20104;-78
2021/01/19 08:18:38;;;;;;;28.95;15.35;;;;;;;-0.82;46.01;100512.69;5043337;23;20069;-76
2021/01/19 08:21:07;;;;;;;16.50;10.30;;;;;;;-0.88;45.76;100510.41;5022311;28;20040;-76
2021/01/19 08:23:34;;;;;;;19.87;13.03;;;;;;;-0.89;45.61;100500.13;5025250;28;20041;-77
2021/01/19 08:26:07;;;;;;;22.60;12.47;;;;;;;-0.85;45.28;100494.69;5040211;28;20033;-77
2021/01/19 08:28:33;;;;;;;26.10;15.27;;;;;;;-0.69;45.18;100526.69;5023475;28;20084;-78
2021/01/19 08:30:59;;;;;;;22.53;13.20;;;;;;;-0.69;45.58;100521.50;5044158;28;20039;-76
2021/01/19 08:33:25;;;;;;;20.47;10.60;;;;;;;-1.18;45.03;100453.28;5041844;28;20033;-77
2021/01/19 08:35:51;;;;;;;17.37;10.87;;;;;;;-1.41;44.68;100381.13;5040120;28;20036;-77
2021/01/19 08:38:20;;;;;;;17.40;10.53;;;;;;;-0.58;44.93;100501.94;5041245;28;20101;-79
2021/01/19 08:40:47;;;;;;;22.50;13.07;;;;;;;-0.52;44.93;100515.41;5040627;28;20025;-78
2021/01/19 08:43:12;;;;;;;25.30;14.37;;;;;;;-0.57;45.10;100499.25;5040181;28;20021;-77
2021/01/19 08:45:39;;;;;;;22.20;14.13;;;;;;;-0.42;45.32;100516.56;5040636;28;20040;-77
2021/01/19 08:48:06;;;;;;;20.10;11.90;;;;;;;-1.15;45.45;100396.09;5040098;28;20629;-77
2021/01/19 08:50:35;;;;;;;16.60;10.50;;;;;;;-0.52;44.91;100491.22;5039753;28;20072;-77
2021/01/19 08:53:12;;;;;;;17.37;10.50;;;;;;;-0.69;45.08;100458.44;5046902;23;21649;-77
2021/01/19 08:55:38;;;;;;;18.30;11.10;;;;;;;-0.86;44.41;100417.00;5023167;28;20025;-77
2021/01/19 08:58:05;;;;;;;24.70;12.00;;;;;;;-0.21;44.40;100522.31;5040898;28;20030;-77
2021/01/19 09:00:41;;;;;;;17.83;10.63;;;;;;;-0.15;44.04;100523.75;5040709;28;20427;-78
2021/01/19 09:03:12;;;;;;;16.03;10.60;;;;;;;-0.33;44.13;100497.06;5040731;28;20415;-77
2021/01/19 09:05:40;;;;;;;19.73;10.80;;;;;;;-0.42;44.82;100513.13;5047916;23;20054;-78
2021/01/19 09:08:18;;;;;;;19.17;11.70;;;;;;;-0.30;44.19;100525.44;5024488;28;20037;-78
2021/01/19 09:13:21;;;;;;;20.03;12.23;;;;;;;-0.11;44.71;100520.88;5041007;28;20050;-77
2021/01/19 09:15:47;;;;;;;18.93;10.20;;;;;;;-0.35;44.13;100459.97;5006028;23;20049;-79
2021/01/19 09:18:14;;;;;;;17.70;10.43;;;;;;;-0.51;44.36;100439.25;5014819;28;20084;-77
2021/01/19 09:20:45;;;;;;;18.17;11.03;;;;;;;-0.26;44.43;100463.81;5003017;28;20398;-76
2021/01/19 09:23:15;;;;;;;13.60;8.47;;;;;;;-0.36;43.84;100455.72;5028480;28;20586;-75
2021/01/19 09:25:42;;;;;;;16.67;11.57;;;;;;;0.20;44.49;100508.78;5020005;28;20280;-79
2021/01/19 09:28:10;;;;;;;15.57;10.77;;;;;;;0.24;44.00;100500.72;5019049;28;20042;-78
2021/01/19 09:30:42;;;;;;;17.73;10.97;;;;;;;0.32;43.50;100503.72;5018863;28;20037;-77
2021/01/19 09:33:14;;;;;;;18.48;11.05;;;;;;;0.28;43.60;100496.19;5019822;28;20426;-77
2021/01/19 09:38:17;;;;;;;19.70;11.27;;;;;;;0.21;43.85;100476.69;4818220;26;20518;-78
2021/01/19 09:40:47;;;;;;;17.13;10.53;;;;;;;0.45;44.11;100488.25;5046818;23;20045;-77
2021/01/19 09:43:15;;;;;;;17.03;10.97;;;;;;;0.46;43.89;100482.13;5027835;28;20065;-78
2021/01/19 09:46:04;;;;;;;18.30;12.00;;;;;;;0.50;43.32;100480.16;5054035;23;20070;-77
2021/01/19 09:48:35;;;;;;;18.73;12.30;;;;;;;0.51;43.45;100476.66;5024312;23;20060;-77
2021/01/19 09:51:05;;;;;;;21.23;13.07;;;;;;;0.53;43.81;100475.63;5034718;23;20061;-78
2021/01/19 09:53:39;;;;;;;20.90;11.97;;;;;;;0.05;43.97;100383.28;5048905;23;20042;-79
2021/01/19 09:56:21;;;;;;;18.93;12.53;;;;;;;0.34;43.21;100415.31;5045691;23;20053;-78
2021/01/19 10:01:25;;;;;;;17.77;11.50;;;;;;;0.62;43.21;100391.91;5074269;23;20064;-78
2021/01/19 10:03:51;;;;;;;19.03;12.47;;;;;;;0.78;43.59;100394.44;5027512;28;20047;-78
2021/01/19 10:06:25;;;;;;;19.37;11.63;;;;;;;0.74;43.04;100368.69;5045500;28;20435;-77
2021/01/19 10:08:54;;;;;;;18.60;10.90;;;;;;;1.22;42.92;100448.88;5072749;23;20053;-77
2021/01/19 10:11:40;;;;;;;20.13;11.87;;;;;;;1.35;42.50;100429.88;5046395;28;20033;-78
2021/01/19 10:14:38;;;;;;;19.93;11.53;;;;;;;1.14;41.94;100380.88;5046466;28;20033;-79
2021/01/19 10:17:09;;;;;;;20.43;11.03;;;;;;;1.52;42.50;100438.31;5045289;28;20030;-80
2021/01/19 10:19:46;;;;;;;18.03;11.30;;;;;;;1.54;41.26;100427.81;5053005;23;20179;-80
2021/01/19 10:22:13;;;;;;;18.50;10.77;;;;;;;-0.41;41.57;100143.84;4989963;23;1152297;-79
2021/01/19 10:27:25;;;;;;;17.23;10.03;;;;;;;0.97;41.84;100326.53;5049356;28;20109;-80
2021/01/19 10:29:51;;;;;;;17.47;11.37;;;;;;;1.08;42.01;100350.06;5047448;28;20029;-79
2021/01/19 10:32:18;;;;;;;20.13;11.27;;;;;;;1.30;42.08;100374.72;5032569;28;20068;-79
2021/01/19 10:34:50;;;;;;;18.57;10.47;;;;;;;0.95;41.95;100290.22;5041997;28;20033;-78
2021/01/19 10:37:17;;;;;;;17.95;11.40;;;;;;;1.81;41.74;100405.16;5043635;28;20064;-78
2021/01/19 10:39:58;;;;;;;16.10;10.53;;;;;;;1.82;41.46;100399.03;5045235;28;20069;-79
2021/01/19 10:42:48;;;;;;;19.17;10.27;;;;;;;1.83;41.46;100395.50;5029216;23;20129;-79
2021/01/19 10:45:31;;;;;;;16.80;11.13;;;;;;;1.86;41.39;100392.69;5022580;23;20072;-79
2021/01/19 10:48:01;;;;;;;17.47;9.73;;;;;;;1.87;40.51;100383.09;5066264;23;20049;-78
2021/01/19 10:50:32;;;;;;;17.33;11.10;;;;;;;1.89;41.12;100378.63;5044165;28;20037;-79
2021/01/19 10:53:02;;;;;;;15.37;9.10;;;;;;;1.87;40.99;100373.53;5045545;28;20028;-78
2021/01/19 10:55:30;;;;;;;12.57;9.10;;;;;;;1.83;41.23;100372.06;5053255;23;20395;-79
2021/01/19 10:58:04;;;;;;;17.20;10.77;;;;;;;1.86;41.03;100363.22;5026844;28;20038;-80
2021/01/19 11:00:35;;;;;;;19.90;11.90;;;;;;;1.45;40.85;100303.47;5025235;23;20069;-78
2021/01/19 11:03:02;;;;;;;16.00;10.90;;;;;;;-0.82;40.81;99911.25;5032661;23;20041;-79
2021/01/19 11:05:28;;;;;;;18.57;10.53;;;;;;;1.88;40.76;100349.16;5046248;23;21069;-78
2021/01/19 11:07:57;;;;;;;16.70;11.47;;;;;;;1.80;40.70;100354.03;5007817;23;20050;-78
2021/01/19 11:10:24;;;;;;;16.53;10.00;;;;;;;1.40;40.88;100276.91;5013984;28;20105;-79
2021/01/19 11:12:58;;;;;;;19.40;13.03;;;;;;;1.27;39.62;100263.88;5035168;23;20100;-78
2021/01/19 11:15:24;;;;;;;19.50;11.37;;;;;;;1.81;40.47;100344.44;5010990;28;20029;-79
2021/01/19 11:20:31;;;;;;;17.07;12.20;;;;;;;1.87;40.33;100324.03;1504279;23;20042;-79
2021/01/19 11:25:26;;;;;;;18.67;11.30;;;;;;;0.69;40.66;100121.28;5039688;23;20042;-80
2021/01/19 11:27:51;;;;;;;14.77;10.67;;;;;;;-0.51;40.70;99904.94;5048755;23;20034;-80
2021/01/19 11:30:17;;;;;;;16.83;9.77;;;;;;;1.52;40.43;100237.09;5080229;23;20041;-80
2021/01/19 11:32:43;;;;;;;13.70;9.47;;;;;;;2.06;40.72;100320.19;5020361;23;20053;-79
2021/01/19 11:35:14;;;;;;;14.77;9.20;;;;;;;1.86;39.69;100311.13;5034408;23;20045;31
2021/01/19 11:37:39;;;;;;;14.27;9.30;;;;;;;1.58;40.70;100254.91;4921671;29;20490;-77
2021/01/19 11:40:08;;;;;;;17.83;10.40;;;;;;;2.06;40.79;100314.97;4925210;29;20027;-78
2021/01/19 11:42:34;;;;;;;16.67;10.67;;;;;;;2.07;40.63;100314.03;4927549;29;20036;-77
2021/01/19 11:47:25;;;;;;;16.65;9.95;;;;;;;1.89;40.98;100282.28;5014660;23;20047;-79
2021/01/19 11:49:51;;;;;;;16.07;10.67;;;;;;;1.88;40.60;100297.06;5000930;28;20034;-79